createdAt,value
2022-07-29T00:02:36.849Z,101895.81
2022-07-29T00:07:39.691Z,101890.88
2022-07-29T00:12:43.870Z,101890.22
2022-07-29T00:17:47.049Z,101892.16
2022-07-29T00:22:49.828Z,101889.41
2022-07-29T00:27:53.986Z,101874.03
2022-07-29T00:32:56.864Z,101873.03
2022-07-29T00:37:59.909Z,101887.22
2022-07-29T00:43:06.385Z,101882.88
2022-07-29T00:48:09.879Z,101890.25
2022-07-29T00:53:14.650Z,101887.72
2022-07-29T00:58:18.882Z,101882.22
2022-07-29T01:03:21.675Z,101879.31
2022-07-29T01:08:25.798Z,101878.06
2022-07-29T01:13:31.824Z,101881.13
2022-07-29T01:18:38.056Z,101879.13
2022-07-29T01:23:56.538Z,101881.66
2022-07-29T01:29:13.333Z,101885.63
2022-07-29T01:34:23.016Z,101874.59
2022-07-29T01:39:33.568Z,101881.06
2022-07-29T01:44:41.688Z,101875.22
2022-07-29T01:49:50.975Z,101868.72
2022-07-29T01:54:59.708Z,101869.41
2022-07-29T02:00:04.891Z,101859.28
2022-07-29T02:05:11.445Z,101860.22
2022-07-29T02:10:16.138Z,101854.03
2022-07-29T02:15:23.801Z,101851.88
2022-07-29T02:20:28.320Z,101847.75
2022-07-29T02:25:37.474Z,101842.91
2022-07-29T02:30:45.273Z,101846.03
2022-07-29T02:35:50.640Z,101846.53
2022-07-29T02:40:55.297Z,101835.19
2022-07-29T02:46:03.068Z,101837.84
2022-07-29T02:51:10.284Z,101838.84
2022-07-29T02:56:22.344Z,101838.63
2022-07-29T03:01:35.134Z,101839.44
2022-07-29T03:06:40.709Z,101846.00
2022-07-29T03:11:50.393Z,101838.19
2022-07-29T03:16:55.469Z,101845.69
2022-07-29T03:21:59.173Z,101843.75
2022-07-29T03:27:02.474Z,101840.00
2022-07-29T03:32:08.949Z,101823.19
2022-07-29T03:37:11.945Z,101830.09
2022-07-29T03:42:17.681Z,101832.72
2022-07-29T03:47:39.324Z,101824.22
2022-07-29T03:52:51.245Z,101815.63
2022-07-29T03:57:54.343Z,101818.56
2022-07-29T04:02:59.027Z,101821.59
2022-07-29T04:08:01.913Z,101819.56
2022-07-29T04:13:04.763Z,101814.94
2022-07-29T04:18:08.931Z,101814.44
2022-07-29T04:23:11.932Z,101808.03
2022-07-29T04:28:14.730Z,101811.38
2022-07-29T04:33:21.249Z,101810.06
2022-07-29T04:38:27.653Z,101809.75
2022-07-29T04:43:30.430Z,101817.03
2022-07-29T04:48:41.064Z,101813.25
2022-07-29T04:53:43.933Z,101811.91
2022-07-29T04:58:46.728Z,101817.16
2022-07-29T05:03:50.961Z,101815.56
2022-07-29T05:08:53.753Z,101807.09
2022-07-29T05:13:56.498Z,101809.53
2022-07-29T05:19:00.647Z,101804.25
2022-07-29T05:24:03.459Z,101803.25
2022-07-29T05:29:06.349Z,101799.28
2022-07-29T05:34:10.522Z,101804.00
2022-07-29T05:39:14.606Z,101808.09
2022-07-29T05:44:17.718Z,101805.25
2022-07-29T05:49:27.015Z,101803.16
2022-07-29T05:54:30.306Z,101801.25
2022-07-29T05:59:33.432Z,101795.66
2022-07-29T06:04:37.658Z,101791.84
2022-07-29T06:09:40.488Z,101798.56
2022-07-29T06:14:43.370Z,101795.84
2022-07-29T06:19:47.519Z,101789.78
2022-07-29T06:24:50.340Z,101785.47
2022-07-29T06:29:53.120Z,101775.97
2022-07-29T06:35:24.410Z,101772.28
2022-07-29T06:40:37.481Z,101770.97
2022-07-29T06:45:42.351Z,101783.66
2022-07-29T06:50:46.801Z,101769.53
2022-07-29T06:55:49.640Z,101770.34
2022-07-29T07:00:52.494Z,101770.25
2022-07-29T07:05:57.363Z,101767.28
2022-07-29T07:11:00.439Z,101766.81
2022-07-29T07:16:03.523Z,101765.69
2022-07-29T07:21:07.850Z,101768.38
2022-07-29T07:26:11.809Z,101766.72
2022-07-29T07:31:15.228Z,101768.66
2022-07-29T07:36:19.419Z,101766.88
2022-07-29T07:41:22.359Z,101755.72
2022-07-29T07:46:25.220Z,101757.09
2022-07-29T07:51:29.443Z,101751.47
2022-07-29T07:56:35.281Z,101746.13
2022-07-29T08:01:48.051Z,101749.59
2022-07-29T08:07:00.896Z,101744.63
2022-07-29T08:12:06.634Z,101744.03
2022-07-29T08:17:09.447Z,101739.72
2022-07-29T08:22:13.578Z,101736.88
2022-07-29T08:27:41.809Z,101738.94
2022-07-29T08:32:55.632Z,101740.03
2022-07-29T08:38:00.307Z,101739.53
2022-07-29T08:43:08.871Z,101742.53
2022-07-29T08:48:11.688Z,101737.03
2022-07-29T08:53:17.307Z,101740.38
2022-07-29T08:58:23.239Z,101733.75
2022-07-29T09:03:32.452Z,101728.38
2022-07-29T09:08:37.329Z,101734.56
2022-07-29T09:13:40.162Z,101732.91
2022-07-29T09:18:44.222Z,101726.13
2022-07-29T09:29:20.815Z,101716.78
2022-07-29T09:34:27.266Z,101724.78
2022-07-29T09:39:32.280Z,101708.28
2022-07-29T09:44:49.023Z,101719.34
2022-07-29T09:49:58.887Z,101711.19
2022-07-29T09:55:09.028Z,101721.19
2022-07-29T10:00:15.924Z,101708.78
2022-07-29T10:05:22.717Z,101709.00
2022-07-29T10:10:27.307Z,101706.41
2022-07-29T10:15:33.672Z,101697.53
2022-07-29T10:20:37.490Z,101694.88
2022-07-29T10:25:45.671Z,101696.84
2022-07-29T10:30:53.793Z,101687.16
2022-07-29T10:36:27.017Z,101681.19
2022-07-29T10:41:47.583Z,101679.50
2022-07-29T10:46:52.620Z,101673.34
2022-07-29T10:52:05.767Z,101669.72
2022-07-29T10:57:21.610Z,101667.97
2022-07-29T11:02:52.971Z,101665.22
2022-07-29T11:08:26.455Z,101664.41
2022-07-29T11:13:53.273Z,101659.97
2022-07-29T11:19:29.770Z,101652.78
2022-07-29T11:24:34.995Z,101659.97
2022-07-29T11:29:41.539Z,101651.88
2022-07-29T11:34:48.790Z,101652.88
2022-07-29T11:40:13.111Z,101646.63
2022-07-29T11:45:43.113Z,101644.81
2022-07-29T11:50:44.494Z,101652.00
2022-07-29T11:55:50.772Z,101652.91
2022-07-29T12:00:56.311Z,101640.28
2022-07-29T12:06:00.661Z,101632.22
2022-07-29T12:11:03.566Z,101634.06
2022-07-29T12:16:07.145Z,101628.72
2022-07-29T12:21:12.454Z,101634.09
2022-07-29T12:26:25.473Z,101627.78
2022-07-29T12:31:41.985Z,101628.78
2022-07-29T12:36:48.737Z,101622.50
2022-07-29T12:41:51.534Z,101613.56
2022-07-29T12:47:04.241Z,101616.25
2022-07-29T12:52:30.762Z,101606.34
2022-07-29T12:57:33.904Z,101604.56
2022-07-29T13:02:37.536Z,101608.16
2022-07-29T13:07:54.964Z,101613.47
2022-07-29T13:13:08.896Z,101596.41
2022-07-29T13:18:29.731Z,101594.66
2022-07-29T13:23:38.405Z,101596.44
2022-07-29T13:28:44.103Z,101582.94
2022-07-29T13:33:47.220Z,101578.44
2022-07-29T13:38:51.402Z,101567.44
2022-07-29T13:43:54.257Z,101571.78
2022-07-29T13:48:57.109Z,101575.34
2022-07-29T13:54:01.590Z,101566.25
2022-07-29T13:59:05.472Z,101570.91
2022-07-29T14:04:08.390Z,101569.19
2022-07-29T14:09:12.637Z,101564.75
2022-07-29T14:14:15.467Z,101564.69
2022-07-29T14:19:18.346Z,101556.66
2022-07-29T14:24:23.785Z,101547.53
2022-07-29T14:29:38.273Z,101549.28
2022-07-29T14:34:41.422Z,101550.22
2022-07-29T14:39:45.598Z,101555.78
2022-07-29T14:44:50.321Z,101544.13
2022-07-29T14:55:19.572Z,101551.38
2022-07-29T15:00:23.391Z,101542.47
2022-07-29T15:05:26.314Z,101547.00
2022-07-29T15:10:31.203Z,101548.78
2022-07-29T15:15:34.359Z,101544.28
2022-07-29T15:20:37.537Z,101537.13
2022-07-29T15:25:44.599Z,101538.94
2022-07-29T15:30:48.273Z,101533.56
2022-07-29T15:35:51.316Z,101524.59
2022-07-29T15:40:57.274Z,101517.38
2022-07-29T15:46:17.932Z,101522.75
2022-07-29T15:51:20.871Z,101522.75
2022-07-29T15:56:25.248Z,101509.28
2022-07-29T16:01:28.555Z,101515.56
2022-07-29T16:06:32.132Z,101516.41
2022-07-29T16:11:36.766Z,101509.16
2022-07-29T16:16:41.842Z,101521.69
2022-07-29T16:21:45.356Z,101527.03
2022-07-29T16:26:52.075Z,101525.22
2022-07-29T16:31:59.468Z,101510.75
2022-07-29T16:37:05.947Z,101517.88
2022-07-29T16:42:36.913Z,101508.81
2022-07-29T16:47:41.181Z,101516.94
2022-07-29T16:52:52.605Z,101516.09
2022-07-29T16:57:57.416Z,101506.28
2022-07-29T17:03:14.873Z,101507.19
2022-07-29T17:08:27.258Z,101504.44
2022-07-29T17:13:32.291Z,101500.75
2022-07-29T17:18:45.249Z,101506.91
2022-07-29T17:23:52.027Z,101504.06
2022-07-29T17:28:57.109Z,101511.06
2022-07-29T17:34:03.387Z,101511.81
2022-07-29T17:39:08.567Z,101510.75
2022-07-29T17:44:13.652Z,101514.16
2022-07-29T17:49:16.870Z,101508.66
2022-07-29T17:54:20.422Z,101507.53
2022-07-29T17:59:25.174Z,101514.50
2022-07-29T18:04:29.298Z,101517.03
2022-07-29T18:09:35.489Z,101513.31
2022-07-29T18:14:58.473Z,101523.00
2022-07-29T18:20:02.260Z,101521.06
2022-07-29T18:25:05.899Z,101523.50
2022-07-29T18:30:20.381Z,101538.44
2022-07-29T18:35:23.653Z,101533.84
2022-07-29T18:40:26.775Z,101528.41
2022-07-29T18:45:36.668Z,101537.16
2022-07-29T18:50:45.688Z,101528.88
2022-07-29T18:56:02.405Z,101529.59
2022-07-29T19:01:07.172Z,101519.66
2022-07-29T19:06:21.613Z,101523.00
2022-07-29T19:11:26.996Z,101535.25
2022-07-29T19:16:31.260Z,101535.94
2022-07-29T19:21:34.315Z,101553.53
2022-07-29T19:26:39.343Z,101546.13
2022-07-29T19:31:44.387Z,101552.88
2022-07-29T19:36:50.256Z,101553.41
2022-07-29T19:42:03.379Z,101546.81
2022-07-29T19:47:12.158Z,101558.06
2022-07-29T19:52:26.837Z,101562.25
2022-07-29T19:57:35.937Z,101559.25
2022-07-29T20:02:45.851Z,101562.53
2022-07-29T20:08:09.991Z,101563.94
2022-07-29T20:13:13.136Z,101573.50
2022-07-29T20:23:50.627Z,101574.72
2022-07-29T20:28:53.988Z,101574.34
2022-07-29T20:33:59.064Z,101574.09
2022-07-29T20:39:02.316Z,101570.94
2022-07-29T20:44:06.327Z,101565.13
2022-07-29T20:49:14.359Z,101563.91
2022-07-29T20:54:19.970Z,101561.78
2022-07-29T20:59:23.149Z,101569.47
2022-07-29T21:04:30.924Z,101564.75
2022-07-29T21:09:35.596Z,101562.56
2022-07-29T21:14:57.920Z,101570.31
2022-07-29T21:20:03.192Z,101573.69
2022-07-29T21:25:07.022Z,101568.84
2022-07-29T21:30:10.898Z,101579.19
2022-07-29T21:35:30.326Z,101571.78
2022-07-29T21:40:37.977Z,101581.41
2022-07-29T21:45:40.832Z,101578.78
2022-07-29T21:50:45.174Z,101584.97
2022-07-29T21:55:48.416Z,101579.44
2022-07-29T22:00:51.249Z,101564.94
2022-07-29T22:05:56.136Z,101568.34
2022-07-29T22:10:59.012Z,101569.09
2022-07-29T22:16:01.800Z,101567.88
2022-07-29T22:21:06.221Z,101571.97
2022-07-29T22:26:09.187Z,101577.53
2022-07-29T22:31:12.272Z,101580.59
2022-07-29T22:36:16.556Z,101578.50
2022-07-29T22:41:19.402Z,101580.22
2022-07-29T22:46:22.293Z,101573.03
2022-07-29T22:51:26.913Z,101565.66
2022-07-29T22:56:29.827Z,101568.84
2022-07-29T23:01:37.258Z,101564.25
2022-07-29T23:06:42.299Z,101569.34
2022-07-29T23:11:45.129Z,101564.69
2022-07-29T23:16:48.132Z,101559.91
2022-07-29T23:21:52.381Z,101558.69
2022-07-29T23:26:55.239Z,101559.47
2022-07-29T23:31:58.033Z,101555.66
2022-07-29T23:37:02.601Z,101554.44
2022-07-29T23:42:05.808Z,101550.69
2022-07-29T23:47:08.644Z,101548.91
2022-07-29T23:52:12.876Z,101541.75
2022-07-29T23:57:15.773Z,101531.84
